0VA5 weather

Coffman Field
Richmond, Virginia, United States

Public forecast

Using degrees Fahrenheit for public forecast. Weather courtesy of forecast.io.

Closest aviation weather report (METAR) to Coffman Field

Closest report is Hanover County Municipal Airport, 10.7 nm (19.8 km) E. Retrieved 2020/05/29 02:54 UTC (22 minutes ago):

KOFP 290254Z AUTO 18008KT 10SM OVC012 24/22 A3008 RMK AO2 SLP181 T02440217 53012

Closest aviation forecast (TAF) to Coffman Field

Closest forecast is Richmond International Airport, 19.8 nm (36.7 km) SE. Retrieved 2020-05-29 00:42 UTC (3 hours ago):

TAF KRIC 282339Z 2900/2924 17008KT P6SM SCT030 BKN150 FM290500 18008KT P6SM BKN015 FM290800 19007KT 4SM BR OVC007 FM291400 20009KT P6SM BKN020 FM291900 20012KT P6SM BKN120